sensor_id;sensor_type;location;lat;lon;timestamp;P1;durP1;ratioP1;P2;durP2;ratioP2
68700;SDS011;55682;51.114;5.882;2023-04-19T00:01:25;13.05;;;12.97;;
68700;SDS011;55682;51.114;5.882;2023-04-19T00:03:50;14.00;;;13.97;;
68700;SDS011;55682;51.114;5.882;2023-04-19T00:06:16;13.70;;;13.60;;
68700;SDS011;55682;51.114;5.882;2023-04-19T00:08:42;14.67;;;14.59;;
68700;SDS011;55682;51.114;5.882;2023-04-19T00:11:08;12.83;;;12.83;;
68700;SDS011;55682;51.114;5.882;2023-04-19T00:13:34;13.61;;;13.59;;
68700;SDS011;55682;51.114;5.882;2023-04-19T00:16:00;14.03;;;14.02;;
68700;SDS011;55682;51.114;5.882;2023-04-19T00:18:26;12.53;;;12.48;;
68700;SDS011;55682;51.114;5.882;2023-04-19T00:20:51;13.46;;;13.31;;
68700;SDS011;55682;51.114;5.882;2023-04-19T00:23:17;13.16;;;13.16;;
68700;SDS011;55682;51.114;5.882;2023-04-19T00:25:44;13.42;;;13.41;;
68700;SDS011;55682;51.114;5.882;2023-04-19T00:28:10;12.96;;;12.94;;
68700;SDS011;55682;51.114;5.882;2023-04-19T00:30:36;12.26;;;12.20;;
68700;SDS011;55682;51.114;5.882;2023-04-19T00:33:01;11.63;;;11.63;;
68700;SDS011;55682;51.114;5.882;2023-04-19T00:35:27;12.68;;;12.62;;
68700;SDS011;55682;51.114;5.882;2023-04-19T00:37:53;12.51;;;12.37;;
68700;SDS011;55682;51.114;5.882;2023-04-19T00:40:18;14.25;;;14.25;;
68700;SDS011;55682;51.114;5.882;2023-04-19T00:42:44;14.16;;;14.11;;
68700;SDS011;55682;51.114;5.882;2023-04-19T00:45:10;12.15;;;12.15;;
68700;SDS011;55682;51.114;5.882;2023-04-19T00:47:36;12.68;;;12.65;;
68700;SDS011;55682;51.114;5.882;2023-04-19T00:50:03;12.38;;;12.36;;
68700;SDS011;55682;51.114;5.882;2023-04-19T00:52:31;13.77;;;13.71;;
68700;SDS011;55682;51.114;5.882;2023-04-19T00:54:57;13.12;;;13.10;;
68700;SDS011;55682;51.114;5.882;2023-04-19T00:57:24;13.49;;;13.43;;
68700;SDS011;55682;51.114;5.882;2023-04-19T00:59:50;13.44;;;13.38;;
68700;SDS011;55682;51.114;5.882;2023-04-19T01:02:16;13.20;;;13.20;;
68700;SDS011;55682;51.114;5.882;2023-04-19T01:04:42;12.62;;;12.53;;
68700;SDS011;55682;51.114;5.882;2023-04-19T01:07:08;11.65;;;11.32;;
68700;SDS011;55682;51.114;5.882;2023-04-19T01:09:34;11.49;;;11.38;;
68700;SDS011;55682;51.114;5.882;2023-04-19T01:12:03;12.76;;;12.76;;
68700;SDS011;55682;51.114;5.882;2023-04-19T01:14:29;11.89;;;11.88;;
68700;SDS011;55682;51.114;5.882;2023-04-19T01:16:55;12.01;;;12.01;;
68700;SDS011;55682;51.114;5.882;2023-04-19T01:19:21;12.30;;;12.16;;
68700;SDS011;55682;51.114;5.882;2023-04-19T01:21:47;12.91;;;12.77;;
68700;SDS011;55682;51.114;5.882;2023-04-19T01:24:13;12.35;;;12.35;;
68700;SDS011;55682;51.114;5.882;2023-04-19T01:26:38;12.67;;;12.66;;
68700;SDS011;55682;51.114;5.882;2023-04-19T01:29:04;12.56;;;12.48;;
68700;SDS011;55682;51.114;5.882;2023-04-19T01:31:30;14.47;;;14.38;;
68700;SDS011;55682;51.114;5.882;2023-04-19T01:33:55;13.02;;;12.99;;
68700;SDS011;55682;51.114;5.882;2023-04-19T01:36:21;13.30;;;13.21;;
68700;SDS011;55682;51.114;5.882;2023-04-19T01:38:46;11.79;;;11.66;;
68700;SDS011;55682;51.114;5.882;2023-04-19T01:41:13;12.78;;;12.58;;
68700;SDS011;55682;51.114;5.882;2023-04-19T01:43:39;13.09;;;12.94;;
68700;SDS011;55682;51.114;5.882;2023-04-19T01:46:05;11.99;;;11.84;;
68700;SDS011;55682;51.114;5.882;2023-04-19T01:48:30;14.09;;;13.98;;
68700;SDS011;55682;51.114;5.882;2023-04-19T01:50:56;11.18;;;11.18;;
68700;SDS011;55682;51.114;5.882;2023-04-19T01:53:22;12.43;;;12.43;;
68700;SDS011;55682;51.114;5.882;2023-04-19T01:55:48;14.18;;;14.18;;
68700;SDS011;55682;51.114;5.882;2023-04-19T01:58:14;12.48;;;12.47;;
68700;SDS011;55682;51.114;5.882;2023-04-19T02:00:39;13.97;;;13.97;;
68700;SDS011;55682;51.114;5.882;2023-04-19T02:03:05;13.89;;;13.89;;
68700;SDS011;55682;51.114;5.882;2023-04-19T02:05:31;14.67;;;14.62;;
68700;SDS011;55682;51.114;5.882;2023-04-19T02:07:58;14.36;;;14.21;;
68700;SDS011;55682;51.114;5.882;2023-04-19T02:10:28;12.76;;;12.75;;
68700;SDS011;55682;51.114;5.882;2023-04-19T02:12:54;13.47;;;13.40;;
68700;SDS011;55682;51.114;5.882;2023-04-19T02:15:20;14.99;;;14.94;;
68700;SDS011;55682;51.114;5.882;2023-04-19T02:17:46;15.13;;;15.12;;
68700;SDS011;55682;51.114;5.882;2023-04-19T02:20:12;14.39;;;14.35;;
68700;SDS011;55682;51.114;5.882;2023-04-19T02:22:38;14.69;;;14.69;;
68700;SDS011;55682;51.114;5.882;2023-04-19T02:25:03;14.98;;;14.95;;
68700;SDS011;55682;51.114;5.882;2023-04-19T02:27:29;14.50;;;14.50;;
68700;SDS011;55682;51.114;5.882;2023-04-19T02:29:55;14.31;;;14.31;;
68700;SDS011;55682;51.114;5.882;2023-04-19T02:32:22;14.98;;;14.89;;
68700;SDS011;55682;51.114;5.882;2023-04-19T02:34:48;16.14;;;16.12;;
68700;SDS011;55682;51.114;5.882;2023-04-19T02:37:13;14.64;;;14.58;;
68700;SDS011;55682;51.114;5.882;2023-04-19T02:39:39;16.00;;;15.96;;
68700;SDS011;55682;51.114;5.882;2023-04-19T02:42:06;16.75;;;16.66;;
68700;SDS011;55682;51.114;5.882;2023-04-19T02:44:32;17.07;;;16.86;;
68700;SDS011;55682;51.114;5.882;2023-04-19T02:46:57;17.25;;;16.84;;
68700;SDS011;55682;51.114;5.882;2023-04-19T02:49:23;18.24;;;18.22;;
68700;SDS011;55682;51.114;5.882;2023-04-19T02:51:49;18.09;;;18.07;;
68700;SDS011;55682;51.114;5.882;2023-04-19T02:54:18;17.92;;;17.84;;
68700;SDS011;55682;51.114;5.882;2023-04-19T02:56:44;17.28;;;17.24;;
68700;SDS011;55682;51.114;5.882;2023-04-19T02:59:10;18.09;;;18.02;;
68700;SDS011;55682;51.114;5.882;2023-04-19T03:01:35;17.81;;;17.71;;
68700;SDS011;55682;51.114;5.882;2023-04-19T03:04:04;17.85;;;17.79;;
68700;SDS011;55682;51.114;5.882;2023-04-19T03:06:30;18.06;;;18.06;;
68700;SDS011;55682;51.114;5.882;2023-04-19T03:08:56;18.60;;;18.40;;
68700;SDS011;55682;51.114;5.882;2023-04-19T03:11:21;18.61;;;18.50;;
68700;SDS011;55682;51.114;5.882;2023-04-19T03:13:47;18.76;;;18.70;;
68700;SDS011;55682;51.114;5.882;2023-04-19T03:16:13;17.87;;;17.86;;
68700;SDS011;55682;51.114;5.882;2023-04-19T03:18:40;18.71;;;18.59;;
68700;SDS011;55682;51.114;5.882;2023-04-19T03:21:06;18.79;;;18.64;;
68700;SDS011;55682;51.114;5.882;2023-04-19T03:23:54;18.62;;;18.57;;
68700;SDS011;55682;51.114;5.882;2023-04-19T03:26:20;19.13;;;19.07;;
68700;SDS011;55682;51.114;5.882;2023-04-19T03:28:50;18.33;;;18.17;;
68700;SDS011;55682;51.114;5.882;2023-04-19T03:31:34;19.43;;;19.42;;
68700;SDS011;55682;51.114;5.882;2023-04-19T03:34:01;19.39;;;19.21;;
68700;SDS011;55682;51.114;5.882;2023-04-19T03:36:33;18.92;;;18.61;;
68700;SDS011;55682;51.114;5.882;2023-04-19T03:38:59;18.05;;;17.82;;
68700;SDS011;55682;51.114;5.882;2023-04-19T03:41:25;19.81;;;19.54;;
68700;SDS011;55682;51.114;5.882;2023-04-19T03:44:05;19.32;;;19.23;;
68700;SDS011;55682;51.114;5.882;2023-04-19T03:46:30;18.39;;;18.32;;
68700;SDS011;55682;51.114;5.882;2023-04-19T03:48:57;18.42;;;18.37;;
68700;SDS011;55682;51.114;5.882;2023-04-19T03:51:23;18.41;;;18.41;;
68700;SDS011;55682;51.114;5.882;2023-04-19T03:53:48;16.98;;;16.96;;
68700;SDS011;55682;51.114;5.882;2023-04-19T03:56:16;17.12;;;17.04;;
68700;SDS011;55682;51.114;5.882;2023-04-19T03:58:42;16.13;;;16.13;;
68700;SDS011;55682;51.114;5.882;2023-04-19T04:01:16;17.85;;;17.85;;
68700;SDS011;55682;51.114;5.882;2023-04-19T04:03:42;15.85;;;15.83;;
68700;SDS011;55682;51.114;5.882;2023-04-19T04:06:07;15.12;;;15.11;;
68700;SDS011;55682;51.114;5.882;2023-04-19T04:08:33;14.60;;;14.56;;
68700;SDS011;55682;51.114;5.882;2023-04-19T04:10:59;14.33;;;14.27;;
68700;SDS011;55682;51.114;5.882;2023-04-19T04:13:24;14.35;;;14.34;;
68700;SDS011;55682;51.114;5.882;2023-04-19T04:16:01;15.12;;;15.08;;
68700;SDS011;55682;51.114;5.882;2023-04-19T04:18:27;13.42;;;13.42;;
68700;SDS011;55682;51.114;5.882;2023-04-19T04:20:53;12.57;;;12.57;;
68700;SDS011;55682;51.114;5.882;2023-04-19T04:23:19;13.53;;;13.53;;
68700;SDS011;55682;51.114;5.882;2023-04-19T04:25:54;13.23;;;13.23;;
68700;SDS011;55682;51.114;5.882;2023-04-19T04:28:24;14.15;;;14.15;;
68700;SDS011;55682;51.114;5.882;2023-04-19T04:30:49;15.66;;;15.41;;
68700;SDS011;55682;51.114;5.882;2023-04-19T04:33:16;16.18;;;16.10;;
68700;SDS011;55682;51.114;5.882;2023-04-19T04:35:43;15.32;;;15.32;;
68700;SDS011;55682;51.114;5.882;2023-04-19T04:38:14;16.62;;;16.57;;
68700;SDS011;55682;51.114;5.882;2023-04-19T04:40:39;15.65;;;15.49;;
68700;SDS011;55682;51.114;5.882;2023-04-19T04:43:06;16.11;;;16.08;;
68700;SDS011;55682;51.114;5.882;2023-04-19T04:45:32;14.25;;;14.24;;
68700;SDS011;55682;51.114;5.882;2023-04-19T04:47:59;15.93;;;15.92;;
68700;SDS011;55682;51.114;5.882;2023-04-19T04:50:25;15.36;;;15.18;;
68700;SDS011;55682;51.114;5.882;2023-04-19T04:52:51;15.99;;;15.66;;
68700;SDS011;55682;51.114;5.882;2023-04-19T04:55:25;15.04;;;15.03;;
68700;SDS011;55682;51.114;5.882;2023-04-19T04:57:51;13.87;;;13.87;;
68700;SDS011;55682;51.114;5.882;2023-04-19T05:00:23;15.11;;;15.11;;
68700;SDS011;55682;51.114;5.882;2023-04-19T05:03:04;14.34;;;14.33;;
68700;SDS011;55682;51.114;5.882;2023-04-19T05:05:34;15.05;;;15.02;;
68700;SDS011;55682;51.114;5.882;2023-04-19T05:08:00;13.70;;;13.62;;
68700;SDS011;55682;51.114;5.882;2023-04-19T05:10:26;14.26;;;14.05;;
68700;SDS011;55682;51.114;5.882;2023-04-19T05:12:52;13.88;;;13.80;;
68700;SDS011;55682;51.114;5.882;2023-04-19T05:15:17;13.32;;;13.14;;
68700;SDS011;55682;51.114;5.882;2023-04-19T05:17:48;13.17;;;13.12;;
68700;SDS011;55682;51.114;5.882;2023-04-19T05:20:14;12.10;;;12.07;;
68700;SDS011;55682;51.114;5.882;2023-04-19T05:22:40;13.08;;;13.04;;
68700;SDS011;55682;51.114;5.882;2023-04-19T05:25:08;13.24;;;13.20;;
68700;SDS011;55682;51.114;5.882;2023-04-19T05:27:34;11.51;;;11.46;;
68700;SDS011;55682;51.114;5.882;2023-04-19T05:30:01;13.95;;;13.81;;
68700;SDS011;55682;51.114;5.882;2023-04-19T05:32:28;12.66;;;12.48;;
68700;SDS011;55682;51.114;5.882;2023-04-19T05:34:56;12.80;;;12.80;;
68700;SDS011;55682;51.114;5.882;2023-04-19T05:37:22;12.88;;;12.81;;
68700;SDS011;55682;51.114;5.882;2023-04-19T05:39:48;12.38;;;12.38;;
68700;SDS011;55682;51.114;5.882;2023-04-19T05:42:14;12.41;;;12.40;;
68700;SDS011;55682;51.114;5.882;2023-04-19T05:44:40;13.22;;;13.21;;
68700;SDS011;55682;51.114;5.882;2023-04-19T05:47:05;11.20;;;11.17;;
68700;SDS011;55682;51.114;5.882;2023-04-19T05:49:58;11.66;;;11.66;;
68700;SDS011;55682;51.114;5.882;2023-04-19T05:52:34;11.97;;;11.97;;
68700;SDS011;55682;51.114;5.882;2023-04-19T05:55:01;11.65;;;11.62;;
68700;SDS011;55682;51.114;5.882;2023-04-19T05:57:27;11.30;;;11.20;;
68700;SDS011;55682;51.114;5.882;2023-04-19T05:59:53;10.84;;;10.82;;
68700;SDS011;55682;51.114;5.882;2023-04-19T06:02:22;11.89;;;11.89;;
68700;SDS011;55682;51.114;5.882;2023-04-19T06:04:48;11.33;;;11.33;;
68700;SDS011;55682;51.114;5.882;2023-04-19T06:07:14;10.88;;;10.88;;
68700;SDS011;55682;51.114;5.882;2023-04-19T06:09:39;10.81;;;10.80;;
68700;SDS011;55682;51.114;5.882;2023-04-19T06:12:06;10.12;;;10.12;;
68700;SDS011;55682;51.114;5.882;2023-04-19T06:14:31;10.60;;;10.55;;
68700;SDS011;55682;51.114;5.882;2023-04-19T06:16:57;10.63;;;10.62;;
68700;SDS011;55682;51.114;5.882;2023-04-19T06:19:23;9.58;;;9.58;;
68700;SDS011;55682;51.114;5.882;2023-04-19T06:21:49;10.07;;;10.07;;
68700;SDS011;55682;51.114;5.882;2023-04-19T06:24:15;8.84;;;8.83;;
68700;SDS011;55682;51.114;5.882;2023-04-19T06:26:41;7.91;;;7.91;;
68700;SDS011;55682;51.114;5.882;2023-04-19T06:29:07;8.02;;;8.02;;
68700;SDS011;55682;51.114;5.882;2023-04-19T06:31:32;8.97;;;8.97;;
68700;SDS011;55682;51.114;5.882;2023-04-19T06:33:58;8.55;;;8.55;;
68700;SDS011;55682;51.114;5.882;2023-04-19T06:36:24;8.81;;;8.81;;
68700;SDS011;55682;51.114;5.882;2023-04-19T06:38:51;7.35;;;7.34;;
68700;SDS011;55682;51.114;5.882;2023-04-19T06:41:16;7.11;;;7.10;;
68700;SDS011;55682;51.114;5.882;2023-04-19T06:43:42;8.68;;;8.66;;
68700;SDS011;55682;51.114;5.882;2023-04-19T06:46:08;8.33;;;8.32;;
68700;SDS011;55682;51.114;5.882;2023-04-19T06:48:35;7.51;;;7.51;;
68700;SDS011;55682;51.114;5.882;2023-04-19T06:51:00;6.18;;;6.18;;
68700;SDS011;55682;51.114;5.882;2023-04-19T06:53:26;5.91;;;5.90;;
68700;SDS011;55682;51.114;5.882;2023-04-19T06:55:57;6.63;;;6.63;;
68700;SDS011;55682;51.114;5.882;2023-04-19T06:58:25;7.05;;;7.05;;
68700;SDS011;55682;51.114;5.882;2023-04-19T07:00:52;6.77;;;6.76;;
68700;SDS011;55682;51.114;5.882;2023-04-19T07:03:18;6.89;;;6.84;;
68700;SDS011;55682;51.114;5.882;2023-04-19T07:05:43;7.61;;;7.61;;
68700;SDS011;55682;51.114;5.882;2023-04-19T07:08:09;6.77;;;6.74;;
68700;SDS011;55682;51.114;5.882;2023-04-19T07:10:35;6.65;;;6.64;;
68700;SDS011;55682;51.114;5.882;2023-04-19T07:13:00;6.56;;;6.56;;
68700;SDS011;55682;51.114;5.882;2023-04-19T07:15:26;6.70;;;6.70;;
68700;SDS011;55682;51.114;5.882;2023-04-19T07:17:51;6.68;;;6.68;;
68700;SDS011;55682;51.114;5.882;2023-04-19T07:20:17;6.05;;;6.05;;
68700;SDS011;55682;51.114;5.882;2023-04-19T07:22:43;6.45;;;6.45;;
68700;SDS011;55682;51.114;5.882;2023-04-19T07:25:08;6.64;;;6.64;;
68700;SDS011;55682;51.114;5.882;2023-04-19T07:27:34;5.56;;;5.56;;
68700;SDS011;55682;51.114;5.882;2023-04-19T07:30:00;6.70;;;6.70;;
68700;SDS011;55682;51.114;5.882;2023-04-19T07:32:26;7.03;;;7.03;;
68700;SDS011;55682;51.114;5.882;2023-04-19T07:34:51;7.18;;;7.18;;
68700;SDS011;55682;51.114;5.882;2023-04-19T07:37:17;6.42;;;6.42;;
68700;SDS011;55682;51.114;5.882;2023-04-19T07:39:43;6.88;;;6.88;;
68700;SDS011;55682;51.114;5.882;2023-04-19T07:42:08;6.11;;;6.11;;
68700;SDS011;55682;51.114;5.882;2023-04-19T07:44:34;6.81;;;6.81;;
68700;SDS011;55682;51.114;5.882;2023-04-19T07:47:00;6.56;;;6.56;;
68700;SDS011;55682;51.114;5.882;2023-04-19T07:49:25;7.06;;;7.06;;
68700;SDS011;55682;51.114;5.882;2023-04-19T07:51:51;6.96;;;6.95;;
68700;SDS011;55682;51.114;5.882;2023-04-19T07:54:17;6.48;;;6.47;;
68700;SDS011;55682;51.114;5.882;2023-04-19T07:56:44;6.83;;;6.83;;
68700;SDS011;55682;51.114;5.882;2023-04-19T07:59:10;6.92;;;6.91;;
68700;SDS011;55682;51.114;5.882;2023-04-19T08:01:36;6.72;;;6.72;;
68700;SDS011;55682;51.114;5.882;2023-04-19T08:04:01;7.44;;;7.44;;
68700;SDS011;55682;51.114;5.882;2023-04-19T08:06:27;7.95;;;7.95;;
68700;SDS011;55682;51.114;5.882;2023-04-19T08:08:54;8.00;;;8.00;;
68700;SDS011;55682;51.114;5.882;2023-04-19T08:11:20;7.43;;;7.43;;
68700;SDS011;55682;51.114;5.882;2023-04-19T08:13:46;7.72;;;7.72;;
68700;SDS011;55682;51.114;5.882;2023-04-19T08:16:11;7.44;;;7.44;;
68700;SDS011;55682;51.114;5.882;2023-04-19T08:18:37;7.15;;;7.15;;
68700;SDS011;55682;51.114;5.882;2023-04-19T08:21:03;7.79;;;7.79;;
68700;SDS011;55682;51.114;5.882;2023-04-19T08:23:28;7.88;;;7.88;;
68700;SDS011;55682;51.114;5.882;2023-04-19T08:25:54;7.50;;;7.50;;
68700;SDS011;55682;51.114;5.882;2023-04-19T08:28:20;6.87;;;6.87;;
68700;SDS011;55682;51.114;5.882;2023-04-19T08:30:45;7.56;;;7.56;;
68700;SDS011;55682;51.114;5.882;2023-04-19T08:33:11;7.61;;;7.61;;
68700;SDS011;55682;51.114;5.882;2023-04-19T08:35:37;7.65;;;7.65;;
68700;SDS011;55682;51.114;5.882;2023-04-19T08:38:05;7.56;;;7.56;;
68700;SDS011;55682;51.114;5.882;2023-04-19T08:40:31;6.96;;;6.96;;
68700;SDS011;55682;51.114;5.882;2023-04-19T08:42:58;7.35;;;7.35;;
68700;SDS011;55682;51.114;5.882;2023-04-19T08:45:28;6.93;;;6.93;;
68700;SDS011;55682;51.114;5.882;2023-04-19T08:47:55;6.43;;;6.43;;
68700;SDS011;55682;51.114;5.882;2023-04-19T08:50:21;6.49;;;6.49;;
68700;SDS011;55682;51.114;5.882;2023-04-19T08:52:47;7.26;;;7.26;;
68700;SDS011;55682;51.114;5.882;2023-04-19T08:55:13;7.03;;;7.03;;
68700;SDS011;55682;51.114;5.882;2023-04-19T08:57:39;6.18;;;6.18;;
68700;SDS011;55682;51.114;5.882;2023-04-19T09:00:06;5.22;;;5.22;;
68700;SDS011;55682;51.114;5.882;2023-04-19T09:02:44;6.42;;;6.42;;
68700;SDS011;55682;51.114;5.882;2023-04-19T09:05:13;7.06;;;7.06;;
68700;SDS011;55682;51.114;5.882;2023-04-19T09:07:39;6.95;;;6.95;;
68700;SDS011;55682;51.114;5.882;2023-04-19T09:10:09;7.00;;;7.00;;
68700;SDS011;55682;51.114;5.882;2023-04-19T09:12:36;6.84;;;6.84;;
68700;SDS011;55682;51.114;5.882;2023-04-19T09:15:05;6.97;;;6.97;;
68700;SDS011;55682;51.114;5.882;2023-04-19T09:17:37;5.47;;;5.47;;
68700;SDS011;55682;51.114;5.882;2023-04-19T09:20:04;6.10;;;6.10;;
68700;SDS011;55682;51.114;5.882;2023-04-19T09:22:31;6.03;;;6.03;;
68700;SDS011;55682;51.114;5.882;2023-04-19T09:24:57;5.92;;;5.92;;
68700;SDS011;55682;51.114;5.882;2023-04-19T09:27:26;5.88;;;5.88;;
68700;SDS011;55682;51.114;5.882;2023-04-19T09:29:54;5.71;;;5.71;;
68700;SDS011;55682;51.114;5.882;2023-04-19T09:32:21;5.10;;;5.10;;
68700;SDS011;55682;51.114;5.882;2023-04-19T09:34:51;3.92;;;3.92;;
68700;SDS011;55682;51.114;5.882;2023-04-19T09:37:17;4.15;;;4.15;;
68700;SDS011;55682;51.114;5.882;2023-04-19T09:39:43;4.58;;;4.58;;
68700;SDS011;55682;51.114;5.882;2023-04-19T09:42:08;6.18;;;6.18;;
68700;SDS011;55682;51.114;5.882;2023-04-19T09:44:34;4.49;;;4.49;;
68700;SDS011;55682;51.114;5.882;2023-04-19T09:47:00;5.16;;;5.16;;
68700;SDS011;55682;51.114;5.882;2023-04-19T09:49:26;4.13;;;4.13;;
68700;SDS011;55682;51.114;5.882;2023-04-19T09:51:52;4.71;;;4.71;;
68700;SDS011;55682;51.114;5.882;2023-04-19T09:54:21;4.22;;;4.22;;
68700;SDS011;55682;51.114;5.882;2023-04-19T09:56:48;5.98;;;5.98;;
68700;SDS011;55682;51.114;5.882;2023-04-19T09:59:14;5.90;;;5.90;;
68700;SDS011;55682;51.114;5.882;2023-04-19T10:01:45;5.73;;;5.73;;
68700;SDS011;55682;51.114;5.882;2023-04-19T10:04:15;4.24;;;4.24;;
68700;SDS011;55682;51.114;5.882;2023-04-19T10:06:50;4.11;;;4.11;;
68700;SDS011;55682;51.114;5.882;2023-04-19T10:09:18;4.11;;;4.11;;
68700;SDS011;55682;51.114;5.882;2023-04-19T10:11:48;3.45;;;3.45;;
68700;SDS011;55682;51.114;5.882;2023-04-19T10:14:16;4.31;;;4.31;;
68700;SDS011;55682;51.114;5.882;2023-04-19T10:16:49;5.68;;;5.68;;
68700;SDS011;55682;51.114;5.882;2023-04-19T10:19:16;5.65;;;5.65;;
68700;SDS011;55682;51.114;5.882;2023-04-19T10:21:44;5.76;;;5.76;;
68700;SDS011;55682;51.114;5.882;2023-04-19T10:24:13;4.66;;;4.66;;
68700;SDS011;55682;51.114;5.882;2023-04-19T10:32:25;4.83;;;4.83;;
68700;SDS011;55682;51.114;5.882;2023-04-19T10:34:54;4.77;;;4.77;;
68700;SDS011;55682;51.114;5.882;2023-04-19T10:37:24;4.36;;;4.36;;
68700;SDS011;55682;51.114;5.882;2023-04-19T10:39:50;4.37;;;4.37;;
68700;SDS011;55682;51.114;5.882;2023-04-19T10:42:16;4.08;;;4.08;;
68700;SDS011;55682;51.114;5.882;2023-04-19T10:47:45;4.70;;;4.70;;
68700;SDS011;55682;51.114;5.882;2023-04-19T10:50:11;4.49;;;4.49;;
68700;SDS011;55682;51.114;5.882;2023-04-19T10:52:40;4.09;;;4.09;;
68700;SDS011;55682;51.114;5.882;2023-04-19T10:55:06;4.33;;;4.33;;
68700;SDS011;55682;51.114;5.882;2023-04-19T11:00:26;4.14;;;4.14;;
68700;SDS011;55682;51.114;5.882;2023-04-19T11:02:55;4.02;;;4.02;;
68700;SDS011;55682;51.114;5.882;2023-04-19T11:05:21;4.09;;;4.09;;
68700;SDS011;55682;51.114;5.882;2023-04-19T11:07:46;4.04;;;4.04;;
68700;SDS011;55682;51.114;5.882;2023-04-19T11:10:12;4.23;;;4.23;;
68700;SDS011;55682;51.114;5.882;2023-04-19T11:12:53;3.88;;;3.88;;
68700;SDS011;55682;51.114;5.882;2023-04-19T11:15:21;3.28;;;3.28;;
68700;SDS011;55682;51.114;5.882;2023-04-19T11:17:50;3.92;;;3.92;;
68700;SDS011;55682;51.114;5.882;2023-04-19T11:20:16;3.62;;;3.62;;
68700;SDS011;55682;51.114;5.882;2023-04-19T11:22:46;3.63;;;3.63;;
68700;SDS011;55682;51.114;5.882;2023-04-19T11:27:47;2.82;;;2.82;;
68700;SDS011;55682;51.114;5.882;2023-04-19T11:30:20;2.90;;;2.90;;
68700;SDS011;55682;51.114;5.882;2023-04-19T11:32:53;3.00;;;3.00;;
68700;SDS011;55682;51.114;5.882;2023-04-19T11:35:20;2.83;;;2.83;;
68700;SDS011;55682;51.114;5.882;2023-04-19T11:37:48;2.29;;;2.29;;
68700;SDS011;55682;51.114;5.882;2023-04-19T11:40:14;2.55;;;2.55;;
68700;SDS011;55682;51.114;5.882;2023-04-19T11:42:42;2.31;;;2.31;;
68700;SDS011;55682;51.114;5.882;2023-04-19T11:45:11;3.14;;;3.14;;
68700;SDS011;55682;51.114;5.882;2023-04-19T11:47:48;3.13;;;3.13;;
68700;SDS011;55682;51.114;5.882;2023-04-19T11:50:34;2.81;;;2.81;;
68700;SDS011;55682;51.114;5.882;2023-04-19T11:53:14;3.13;;;3.13;;
68700;SDS011;55682;51.114;5.882;2023-04-19T11:55:42;2.76;;;2.76;;
68700;SDS011;55682;51.114;5.882;2023-04-19T11:58:15;3.00;;;3.00;;
68700;SDS011;55682;51.114;5.882;2023-04-19T12:00:54;3.21;;;3.21;;
68700;SDS011;55682;51.114;5.882;2023-04-19T12:03:21;3.01;;;3.01;;
68700;SDS011;55682;51.114;5.882;2023-04-19T12:05:54;2.62;;;2.62;;
68700;SDS011;55682;51.114;5.882;2023-04-19T12:08:41;2.35;;;2.35;;
68700;SDS011;55682;51.114;5.882;2023-04-19T12:11:09;2.19;;;2.19;;
68700;SDS011;55682;51.114;5.882;2023-04-19T12:13:35;3.28;;;3.28;;
68700;SDS011;55682;51.114;5.882;2023-04-19T12:16:02;2.85;;;2.85;;
68700;SDS011;55682;51.114;5.882;2023-04-19T12:18:40;2.69;;;2.69;;
68700;SDS011;55682;51.114;5.882;2023-04-19T12:21:11;2.10;;;2.10;;
68700;SDS011;55682;51.114;5.882;2023-04-19T12:23:52;2.44;;;2.44;;
68700;SDS011;55682;51.114;5.882;2023-04-19T12:26:18;2.46;;;2.46;;
68700;SDS011;55682;51.114;5.882;2023-04-19T12:28:44;2.45;;;2.45;;
68700;SDS011;55682;51.114;5.882;2023-04-19T12:31:10;1.98;;;1.98;;
68700;SDS011;55682;51.114;5.882;2023-04-19T12:33:35;3.12;;;3.12;;
68700;SDS011;55682;51.114;5.882;2023-04-19T12:36:01;3.06;;;3.06;;
68700;SDS011;55682;51.114;5.882;2023-04-19T12:38:26;3.33;;;3.33;;
68700;SDS011;55682;51.114;5.882;2023-04-19T12:40:52;3.62;;;3.62;;
68700;SDS011;55682;51.114;5.882;2023-04-19T12:43:17;3.54;;;3.54;;
68700;SDS011;55682;51.114;5.882;2023-04-19T12:45:43;3.85;;;3.85;;
68700;SDS011;55682;51.114;5.882;2023-04-19T12:48:09;3.39;;;3.39;;
68700;SDS011;55682;51.114;5.882;2023-04-19T12:50:34;3.25;;;3.25;;
68700;SDS011;55682;51.114;5.882;2023-04-19T12:53:00;3.36;;;3.36;;
68700;SDS011;55682;51.114;5.882;2023-04-19T12:55:25;3.15;;;3.15;;
68700;SDS011;55682;51.114;5.882;2023-04-19T12:57:51;3.45;;;3.45;;
68700;SDS011;55682;51.114;5.882;2023-04-19T13:00:17;2.67;;;2.67;;
68700;SDS011;55682;51.114;5.882;2023-04-19T13:02:42;2.22;;;2.22;;
68700;SDS011;55682;51.114;5.882;2023-04-19T13:05:08;2.94;;;2.94;;
68700;SDS011;55682;51.114;5.882;2023-04-19T13:07:34;3.18;;;3.18;;
68700;SDS011;55682;51.114;5.882;2023-04-19T13:09:59;3.30;;;3.30;;
68700;SDS011;55682;51.114;5.882;2023-04-19T13:12:25;3.74;;;3.74;;
68700;SDS011;55682;51.114;5.882;2023-04-19T13:14:51;3.72;;;3.72;;
68700;SDS011;55682;51.114;5.882;2023-04-19T13:17:17;3.25;;;3.25;;
68700;SDS011;55682;51.114;5.882;2023-04-19T13:19:43;3.48;;;3.48;;
68700;SDS011;55682;51.114;5.882;2023-04-19T13:22:09;3.79;;;3.79;;
68700;SDS011;55682;51.114;5.882;2023-04-19T13:24:34;4.06;;;4.06;;
68700;SDS011;55682;51.114;5.882;2023-04-19T13:27:00;3.59;;;3.59;;
68700;SDS011;55682;51.114;5.882;2023-04-19T13:29:26;3.65;;;3.65;;
68700;SDS011;55682;51.114;5.882;2023-04-19T13:31:53;3.47;;;3.47;;
68700;SDS011;55682;51.114;5.882;2023-04-19T13:34:19;3.38;;;3.38;;
68700;SDS011;55682;51.114;5.882;2023-04-19T13:36:45;4.29;;;4.29;;
68700;SDS011;55682;51.114;5.882;2023-04-19T13:39:11;4.27;;;4.27;;
68700;SDS011;55682;51.114;5.882;2023-04-19T13:41:37;3.52;;;3.52;;
68700;SDS011;55682;51.114;5.882;2023-04-19T13:44:02;4.05;;;4.05;;
68700;SDS011;55682;51.114;5.882;2023-04-19T13:46:28;4.09;;;4.09;;
68700;SDS011;55682;51.114;5.882;2023-04-19T13:48:54;4.10;;;4.10;;
68700;SDS011;55682;51.114;5.882;2023-04-19T13:51:19;3.01;;;3.01;;
68700;SDS011;55682;51.114;5.882;2023-04-19T13:53:45;2.97;;;2.97;;
68700;SDS011;55682;51.114;5.882;2023-04-19T13:56:10;3.65;;;3.65;;
68700;SDS011;55682;51.114;5.882;2023-04-19T13:58:36;2.72;;;2.72;;
68700;SDS011;55682;51.114;5.882;2023-04-19T14:01:02;3.89;;;3.89;;
68700;SDS011;55682;51.114;5.882;2023-04-19T14:03:28;4.33;;;4.33;;
68700;SDS011;55682;51.114;5.882;2023-04-19T14:05:54;4.80;;;4.80;;
68700;SDS011;55682;51.114;5.882;2023-04-19T14:08:19;4.43;;;4.43;;
68700;SDS011;55682;51.114;5.882;2023-04-19T14:10:45;3.90;;;3.90;;
68700;SDS011;55682;51.114;5.882;2023-04-19T14:13:11;4.56;;;4.56;;
68700;SDS011;55682;51.114;5.882;2023-04-19T14:15:36;4.07;;;4.07;;
68700;SDS011;55682;51.114;5.882;2023-04-19T14:18:02;2.88;;;2.88;;
68700;SDS011;55682;51.114;5.882;2023-04-19T14:20:28;3.21;;;3.21;;
68700;SDS011;55682;51.114;5.882;2023-04-19T14:22:53;3.53;;;3.53;;
68700;SDS011;55682;51.114;5.882;2023-04-19T14:25:23;3.78;;;3.78;;
68700;SDS011;55682;51.114;5.882;2023-04-19T14:27:48;3.83;;;3.83;;
68700;SDS011;55682;51.114;5.882;2023-04-19T14:30:14;4.02;;;4.02;;
68700;SDS011;55682;51.114;5.882;2023-04-19T14:32:40;4.57;;;4.57;;
68700;SDS011;55682;51.114;5.882;2023-04-19T14:35:05;4.14;;;4.14;;
68700;SDS011;55682;51.114;5.882;2023-04-19T14:37:33;4.31;;;4.31;;
68700;SDS011;55682;51.114;5.882;2023-04-19T14:39:59;4.53;;;4.53;;
68700;SDS011;55682;51.114;5.882;2023-04-19T14:42:24;4.34;;;4.34;;
68700;SDS011;55682;51.114;5.882;2023-04-19T14:44:50;4.17;;;4.17;;
68700;SDS011;55682;51.114;5.882;2023-04-19T14:47:16;3.83;;;3.83;;
68700;SDS011;55682;51.114;5.882;2023-04-19T14:49:42;3.87;;;3.87;;